Time,TemperatureF,DewpointF,PressureIn,WindDirection,WindDirectionDegrees,WindSpeedMPH,WindSpeedGustMPH,Humidity,HourlyPrecipIn,Conditions,Clouds,dailyrainin,SoftwareType,DateUTC
2013-03-31 00:02:00,57.0,-99.9,-100.00,NE,55,0.0,1.0,54,-99.99,,,-99.99,,2013-03-31 04:02:00,
2013-03-31 01:02:00,52.0,41.0,-100.00,ENE,65,0.0,1.0,65,-99.99,,,-99.99,,2013-03-31 05:02:00,
2013-03-31 01:12:00,52.0,41.0,-100.00,ENE,65,0.0,1.0,65,-99.99,,,-99.99,,2013-03-31 05:12:00,
2013-03-31 03:02:00,50.0,39.0,-100.00,North,5,2.0,6.0,65,-99.99,,,-99.99,,2013-03-31 07:02:00,
2013-03-31 03:12:00,50.0,39.0,-100.00,North,5,2.0,6.0,65,-99.99,,,-99.99,,2013-03-31 07:12:00,
2013-03-31 04:02:00,49.0,38.0,-100.00,SSE,150,1.0,3.0,65,-99.99,,,-99.99,,2013-03-31 08:02:00,
2013-03-31 04:12:00,49.0,38.0,-100.00,SSE,150,1.0,3.0,65,-99.99,,,-99.99,,2013-03-31 08:12:00,
2013-03-31 05:02:00,47.0,37.0,-100.00,South,175,2.0,7.0,68,-99.99,,,-99.99,,2013-03-31 09:02:00,
2013-03-31 06:03:00,46.0,36.0,-100.00,NNE,20,3.0,7.0,67,-99.99,,,-99.99,,2013-03-31 10:03:00,
2013-03-31 06:10:00,44.0,35.0,-100.00,ESE,120,1.0,7.0,70,-99.99,,,-99.99,,2013-03-31 10:10:00,
2013-03-31 06:12:00,46.0,36.0,-100.00,NNE,20,3.0,7.0,67,-99.99,,,-99.99,,2013-03-31 10:12:00,
2013-03-31 07:02:00,44.0,35.0,-100.00,ESE,120,1.0,7.0,70,-99.99,,,-99.99,,2013-03-31 11:02:00,
2013-03-31 09:02:00,42.0,35.0,-100.00,SSE,150,1.0,6.0,76,-99.99,,,-99.99,,2013-03-31 13:02:00,
2013-03-31 10:02:00,41.0,34.0,-100.00,SSE,165,3.0,9.0,75,-99.99,,,-99.99,,2013-03-31 14:02:00,
2013-03-31 10:11:00,41.0,34.0,-100.00,SSE,165,3.0,9.0,75,-99.99,,,-99.99,,2013-03-31 14:11:00,
2013-03-31 11:02:00,40.0,34.0,-100.00,NE,55,2.0,5.0,78,-99.99,,,-99.99,,2013-03-31 15:02:00,
2013-03-31 11:10:00,41.0,35.0,-100.00,South,175,1.0,6.0,79,-99.99,,,-99.99,,2013-03-31 15:10:00,
2013-03-31 12:03:00,41.0,35.0,-100.00,South,175,1.0,6.0,79,-99.99,,,-99.99,,2013-03-31 16:03:00,
2013-03-31 13:02:00,43.0,36.0,-100.00,North,10,1.0,6.0,76,-99.99,,,-99.99,,2013-03-31 17:02:00,
2013-03-31 13:10:00,51.0,39.0,-100.00,SSE,160,1.0,3.0,63,-99.99,,,-99.99,,2013-03-31 17:10:00,
2013-03-31 14:00:00,59.0,36.0,-100.00,North,10,1.0,2.0,42,-99.99,,,-99.99,,2013-03-31 18:00:00,
2013-03-31 14:02:00,51.0,39.0,-100.00,SSE,160,1.0,3.0,63,-99.99,,,-99.99,,2013-03-31 18:02:00,
2013-03-31 15:10:00,63.0,37.0,-100.00,SW,235,5.0,8.0,37,-99.99,,,-99.99,,2013-03-31 19:10:00,
2013-03-31 16:02:00,63.0,37.0,-100.00,SW,235,5.0,8.0,37,-99.99,,,-99.99,,2013-03-31 20:02:00,
2013-03-31 16:20:00,68.0,38.0,-100.00,WSW,245,3.0,8.0,33,-99.99,,,-99.99,,2013-03-31 20:20:00,
2013-03-31 17:02:00,68.0,38.0,-100.00,WSW,245,3.0,8.0,33,-99.99,,,-99.99,,2013-03-31 21:02:00,
2013-03-31 17:10:00,70.0,36.0,-100.00,WSW,240,7.0,9.0,28,-99.99,,,-99.99,,2013-03-31 21:10:00,
2013-03-31 17:12:00,68.0,38.0,-100.00,WSW,245,3.0,8.0,33,-99.99,,,-99.99,,2013-03-31 21:12:00,
2013-03-31 18:03:00,70.0,36.0,-100.00,WSW,240,7.0,9.0,28,-99.99,,,-99.99,,2013-03-31 22:03:00,
2013-03-31 19:02:00,72.0,36.0,-100.00,WSW,250,6.0,12.0,26,-99.99,,,-99.99,,2013-03-31 23:02:00,
2013-03-31 19:10:00,74.0,36.0,-100.00,NW,315,5.0,10.0,25,-99.99,,,-99.99,,2013-03-31 23:10:00,
2013-03-31 19:12:00,72.0,36.0,-100.00,WSW,250,6.0,12.0,26,-99.99,,,-99.99,,2013-03-31 23:12:00,
2013-03-31 20:02:00,74.0,36.0,-100.00,NW,315,5.0,10.0,25,-99.99,,,-99.99,,2013-04-01 00:02:00,
2013-03-31 21:02:00,74.0,36.0,-100.00,WNW,290,6.0,9.0,25,-99.99,,,-99.99,,2013-04-01 01:02:00,
2013-03-31 21:12:00,74.0,36.0,-100.00,WNW,290,6.0,9.0,25,-99.99,,,-99.99,,2013-04-01 01:12:00,